createdAt,value
2022-10-23T00:09:01.507Z,4
2022-10-23T00:19:07.788Z,3
2022-10-23T00:29:14.708Z,4
2022-10-23T00:39:22.107Z,2
2022-10-23T00:49:29.904Z,3
2022-10-23T00:59:33.252Z,3
2022-10-23T01:09:39.490Z,2
2022-10-23T01:19:45.755Z,3
2022-10-23T01:29:50.796Z,3
2022-10-23T01:39:57.566Z,3
2022-10-23T01:50:03.779Z,3
2022-10-23T02:00:10.195Z,3
2022-10-23T02:10:15.192Z,3
2022-10-23T02:20:21.090Z,4
2022-10-23T02:30:29.026Z,2
2022-10-23T02:40:35.119Z,3
2022-10-23T02:50:41.037Z,4
2022-10-23T03:00:47.407Z,3
2022-10-23T03:10:53.962Z,4
2022-10-23T03:21:00.435Z,3
2022-10-23T03:31:06.309Z,2
2022-10-23T03:41:12.326Z,4
2022-10-23T03:51:19.263Z,3
2022-10-23T04:01:25.155Z,3
2022-10-23T04:11:31.293Z,4
2022-10-23T04:21:38.273Z,5
2022-10-23T04:31:44.137Z,2
2022-10-23T04:41:49.322Z,4
2022-10-23T04:51:56.336Z,2
2022-10-23T05:02:01.857Z,3
2022-10-23T05:12:05.933Z,2
2022-10-23T05:22:12.030Z,3
2022-10-23T05:32:18.967Z,2
2022-10-23T05:42:22.455Z,2
2022-10-23T05:52:29.443Z,3
2022-10-23T06:02:35.574Z,3
2022-10-23T06:12:38.497Z,3
2022-10-23T06:22:44.990Z,2
2022-10-23T06:32:49.625Z,2
2022-10-23T06:42:55.959Z,2
2022-10-23T06:53:29.161Z,3
2022-10-23T07:03:24.226Z,6
2022-10-23T07:13:28.082Z,4
2022-10-23T07:23:34.613Z,3
2022-10-23T07:33:42.194Z,3
2022-10-23T07:43:46.422Z,4
2022-10-23T07:53:53.542Z,3
2022-10-23T08:03:59.664Z,3
2022-10-23T08:14:04.681Z,3
2022-10-23T08:24:11.200Z,2
2022-10-23T08:34:16.186Z,2
2022-10-23T08:44:21.454Z,3
2022-10-23T08:54:27.463Z,2
2022-10-23T09:04:32.605Z,2
2022-10-23T09:14:38.548Z,9
2022-10-23T10:05:12.650Z,4
2022-10-23T10:15:18.257Z,3
2022-10-23T10:25:23.268Z,3
2022-10-23T10:35:29.186Z,2
2022-10-23T10:45:34.408Z,2
2022-10-23T10:55:40.716Z,3
2022-10-23T11:05:46.004Z,2
2022-10-23T11:25:57.686Z,5
2022-10-23T11:36:04.681Z,3
2022-10-23T11:46:11.687Z,7
2022-10-23T11:56:16.944Z,4
2022-10-23T12:06:22.400Z,3
2022-10-23T12:16:33.219Z,6
2022-10-23T12:26:33.703Z,2
2022-10-23T12:36:38.064Z,3
2022-10-23T12:46:47.508Z,3
2022-10-23T12:56:47.597Z,6
2022-10-23T13:06:53.227Z,3
2022-10-23T13:16:58.760Z,7
2022-10-23T13:27:04.219Z,3
2022-10-23T13:37:09.370Z,3
2022-10-23T13:47:15.842Z,3
2022-10-23T13:57:21.898Z,5
2022-10-23T14:07:27.513Z,3
2022-10-23T14:17:34.277Z,4
2022-10-23T14:27:41.817Z,6
2022-10-23T14:37:56.617Z,4
2022-10-23T14:47:52.880Z,5
2022-10-23T16:08:40.615Z,13
2022-10-23T16:18:44.592Z,8
2022-10-23T16:28:50.733Z,9
2022-10-23T16:38:56.407Z,15
2022-10-23T16:49:03.220Z,12
2022-10-23T16:59:09.654Z,9
2022-10-23T17:09:15.480Z,8
2022-10-23T17:19:43.593Z,8
2022-10-23T17:29:40.015Z,8
2022-10-23T17:39:45.779Z,8
2022-10-23T17:49:51.844Z,9
2022-10-23T17:59:59.059Z,5
2022-10-23T18:10:05.052Z,7
2022-10-23T18:20:10.649Z,9
2022-10-23T18:30:16.449Z,10
2022-10-23T18:40:23.099Z,6
2022-10-23T18:50:27.308Z,9
2022-10-23T19:00:32.336Z,8
2022-10-23T19:10:38.886Z,8
2022-10-23T19:20:45.595Z,8
2022-10-23T19:30:53.626Z,8
2022-10-23T19:40:55.804Z,9
2022-10-23T19:51:01.998Z,9
2022-10-23T20:01:09.077Z,8
2022-10-23T20:11:16.541Z,7
2022-10-23T20:21:20.795Z,6
2022-10-23T20:31:26.750Z,8
2022-10-23T20:41:32.427Z,7
2022-10-23T20:51:36.891Z,6
2022-10-23T21:01:43.888Z,8
2022-10-23T21:11:47.171Z,11
2022-10-23T21:21:53.299Z,7
2022-10-23T21:32:01.217Z,7
2022-10-23T21:42:06.372Z,10
2022-10-23T21:52:12.398Z,10
2022-10-23T22:02:19.531Z,6
2022-10-23T22:12:24.911Z,8
2022-10-23T22:22:31.452Z,7
2022-10-23T22:32:39.482Z,8
2022-10-23T22:42:43.926Z,9
2022-10-23T22:52:49.844Z,8
2022-10-23T23:02:56.008Z,8
2022-10-23T23:13:00.684Z,8
2022-10-23T23:23:04.749Z,10
2022-10-23T23:33:10.820Z,7
2022-10-23T23:43:17.696Z,8
2022-10-23T23:53:23.022Z,9
